Time;durP1;ratioP1;P1;durP2;ratioP2;P2;SDS_P1;SDS_P2;PMS_P1;PMS_P2;Temp;Humidity;BMP_temperature;BMP_pressure;BME280_temperature;BME280_humidity;BME280_pressure;Samples;Min_cycle;Max_cycle;Signal;HPM_P1;HPM_P2
2023/10/01 00:00:30;;;;;;;18.9;7.9;;;;;;;13.28;95.26367;947.4322;;;;
2023/10/01 00:02:55;;;;;;;17.5;7.5;;;;;;;13.29;94.77148;947.4164;;;;
2023/10/01 00:05:25;;;;;;;16;7.3;;;;;;;13.15;95.77441;947.4578;;;;
2023/10/01 00:07:49;;;;;;;16.5;7.2;;;;;;;12.94;97.17676;947.4146;;;;
2023/10/01 00:10:17;;;;;;;16.5;7.6;;;;;;;12.95;96.91504;947.3716;;;;
2023/10/01 00:12:44;;;;;;;18.4;8.2;;;;;;;12.93;96.75977;947.4177;;;;
2023/10/01 00:15:12;;;;;;;15.6;7.7;;;;;;;12.97;96.59766;947.439;;;;
2023/10/01 00:17:36;;;;;;;19.2;8.3;;;;;;;12.86;97.2373;947.4037;;;;
2023/10/01 00:20:12;;;;;;;18.6;7.9;;;;;;;12.75;98.07422;947.3617;;;;
2023/10/01 00:22:37;;;;;;;17.9;7.6;;;;;;;12.78;97.55176;947.395;;;;
2023/10/01 00:24:59;;;;;;;16.3;7.6;;;;;;;12.94;96.55469;947.4153;;;;
2023/10/01 00:27:27;;;;;;;18.5;8.1;;;;;;;13.05;95.36426;947.4006;;;;
2023/10/01 00:29:52;;;;;;;18.3;8.6;;;;;;;12.89;95.06445;947.385;;;;
2023/10/01 00:32:18;;;;;;;15.3;7.5;;;;;;;12.94;94.77734;947.3739;;;;
2023/10/01 00:34:43;;;;;;;15.4;7.4;;;;;;;12.98;94.91211;947.3711;;;;
2023/10/01 00:37:09;;;;;;;18.4;7.8;;;;;;;12.92;95.74707;947.3798;;;;
2023/10/01 00:39:36;;;;;;;16.8;7.5;;;;;;;12.86;96.08008;947.4197;;;;
2023/10/01 00:42:02;;;;;;;17.4;7.6;;;;;;;12.91;95.81445;947.3861;;;;
2023/10/01 00:44:28;;;;;;;15.4;7.3;;;;;;;12.91;95.48145;947.3949;;;;
2023/10/01 00:46:53;;;;;;;17;7.6;;;;;;;12.97;94.84082;947.3727;;;;
2023/10/01 00:49:22;;;;;;;17.8;8.1;;;;;;;12.93;94.13281;947.4025;;;;
2023/10/01 00:51:46;;;;;;;18.5;8.2;;;;;;;12.67;96.3457;947.3628;;;;
2023/10/01 00:54:14;;;;;;;19.4;7.7;;;;;;;12.58;97.07324;947.3028;;;;
2023/10/01 00:56:39;;;;;;;16.6;7.6;;;;;;;12.68;96.84277;947.3727;;;;
2023/10/01 00:59:05;;;;;;;18.1;7.4;;;;;;;12.77;95.96777;947.4387;;;;
2023/10/01 01:01:30;;;;;;;14.9;7.4;;;;;;;12.83;95.80762;947.4169;;;;
2023/10/01 01:03:57;;;;;;;18.2;7.9;;;;;;;12.78;95.90137;947.4327;;;;
2023/10/01 01:06:23;;;;;;;15.2;7.3;;;;;;;12.72;96.17383;947.4276;;;;
2023/10/01 01:08:54;;;;;;;14.8;7;;;;;;;12.72;95.93555;947.3997;;;;
2023/10/01 01:11:16;;;;;;;15.3;7;;;;;;;12.64;96.31641;947.36;;;;
2023/10/01 01:13:47;;;;;;;15.6;7.4;;;;;;;12.54;97.20313;947.3638;;;;
2023/10/01 01:16:12;;;;;;;15.8;8;;;;;;;12.66;96.62109;947.3404;;;;
2023/10/01 01:18:38;;;;;;;19.8;8.1;;;;;;;12.78;95.60059;947.3566;;;;
2023/10/01 01:21:05;;;;;;;16.3;6.9;;;;;;;12.79;95.32031;947.3641;;;;
2023/10/01 01:23:31;;;;;;;15.4;7.1;;;;;;;12.81;95.00098;947.3603;;;;
2023/10/01 01:25:56;;;;;;;16.8;7.6;;;;;;;12.78;95.0957;947.2815;;;;
2023/10/01 01:28:27;;;;;;;17.7;8.2;;;;;;;12.75;95.44531;947.4186;;;;
2023/10/01 01:30:49;;;;;;;13.8;7.4;;;;;;;12.76;94.92188;947.45;;;;
2023/10/01 01:33:21;;;;;;;16.8;8.2;;;;;;;12.77;95.00391;947.4844;;;;
2023/10/01 01:35:49;;;;;;;16.3;7.1;;;;;;;12.75;95.08008;947.3267;;;;
2023/10/01 01:38:11;;;;;;;17.5;7.3;;;;;;;12.68;96.17578;947.4094;;;;
2023/10/01 01:40:47;;;;;;;16.4;7.6;;;;;;;12.67;96.08398;947.4006;;;;
2023/10/01 01:43:15;;;;;;;17.1;7.3;;;;;;;12.65;96.14648;947.4617;;;;
2023/10/01 01:45:33;;;;;;;15;7.6;;;;;;;12.62;96.2666;947.4612;;;;
2023/10/01 01:47:58;;;;;;;16.3;7.6;;;;;;;12.53;96.08594;947.5073;;;;
2023/10/01 01:50:26;;;;;;;15;6.8;;;;;;;12.56;95.99121;947.4296;;;;
2023/10/01 01:52:51;;;;;;;15.8;7.4;;;;;;;12.54;95.62988;947.4196;;;;
2023/10/01 01:55:31;;;;;;;16.9;7.5;;;;;;;12.49;95.80273;947.3965;;;;
2023/10/01 01:57:43;;;;;;;15.3;6.9;;;;;;;12.47;95.70508;947.3666;;;;
2023/10/01 02:00:19;;;;;;;17.1;7.8;;;;;;;12.45;95.56348;947.3973;;;;
2023/10/01 02:02:59;;;;;;;17.8;7.7;;;;;;;12.42;95.86719;947.3786;;;;
2023/10/01 02:05:17;;;;;;;15.5;7.6;;;;;;;12.26;96.58789;947.3865;;;;
2023/10/01 02:07:40;;;;;;;17.3;7.6;;;;;;;12.21;96.78418;947.3622;;;;
2023/10/01 02:10:11;;;;;;;16.4;7.7;;;;;;;12.21;96.62402;947.3031;;;;
2023/10/01 02:12:36;;;;;;;18;7.1;;;;;;;12.23;96.75391;947.3597;;;;
2023/10/01 02:15:07;;;;;;;16.5;7.8;;;;;;;12.19;96.73242;947.2829;;;;
2023/10/01 02:17:30;;;;;;;15.2;7.5;;;;;;;12.26;96.37012;947.3148;;;;
2023/10/01 02:20:00;;;;;;;19.8;7.4;;;;;;;12.26;96.56738;947.2549;;;;
2023/10/01 02:22:24;;;;;;;13.8;7;;;;;;;12.27;97.2207;947.2606;;;;
2023/10/01 02:24:57;;;;;;;15.3;6.9;;;;;;;12.27;96.86523;947.2623;;;;
2023/10/01 02:27:18;;;;;;;16.2;7.3;;;;;;;12.25;96.74414;947.313;;;;
2023/10/01 02:30:13;;;;;;;14.9;7;;;;;;;12.23;96.59375;947.3015;;;;
2023/10/01 02:32:14;;;;;;;16.4;7.9;;;;;;;12.1;97.80078;947.2717;;;;
2023/10/01 02:34:37;;;;;;;18.1;7.9;;;;;;;11.94;99.39063;947.3906;;;;
2023/10/01 02:37:07;;;;;;;17;7.7;;;;;;;11.89;99.86133;947.4431;;;;
2023/10/01 02:39:29;;;;;;;16.3;7.8;;;;;;;12.01;99.19141;947.3664;;;;
2023/10/01 02:42:09;;;;;;;14.9;7.1;;;;;;;12.07;98.5166;947.3287;;;;
2023/10/01 02:44:21;;;;;;;20.2;7.5;;;;;;;12.03;98.10742;947.2576;;;;
2023/10/01 02:46:48;;;;;;;16.1;7.2;;;;;;;12.05;97.56152;947.274;;;;
2023/10/01 02:49:12;;;;;;;15.4;7.1;;;;;;;12.02;97.54199;947.2208;;;;
2023/10/01 02:51:37;;;;;;;18;8.5;;;;;;;12.04;97.65137;947.2802;;;;
2023/10/01 02:54:09;;;;;;;16.9;7.7;;;;;;;12.12;97.1084;947.2361;;;;
2023/10/01 02:56:27;;;;;;;16.8;7.3;;;;;;;12.16;96.66895;947.2305;;;;
2023/10/01 02:58:52;;;;;;;13.7;6.8;;;;;;;12.23;95.96094;947.2216;;;;
2023/10/01 03:01:29;;;;;;;16.2;7.1;;;;;;;12.3;95.3125;947.2115;;;;
2023/10/01 03:03:48;;;;;;;14.7;7.1;;;;;;;12.14;95.80566;947.2715;;;;
2023/10/01 03:06:13;;;;;;;16.6;7.2;;;;;;;12.09;96.0918;947.2651;;;;
2023/10/01 03:09:00;;;;;;;15.8;7;;;;;;;11.93;96.89355;947.25;;;;
2023/10/01 03:11:06;;;;;;;15.5;6.8;;;;;;;11.69;98.69434;947.24;;;;
2023/10/01 03:13:32;;;;;;;15.7;7.2;;;;;;;11.67;99.0332;947.2349;;;;
2023/10/01 03:18:36;;;;;;;16.2;7.5;;;;;;;11.71;99.00684;947.2189;;;;
2023/10/01 03:21:07;;;;;;;13.6;6.9;;;;;;;11.44;100;947.2498;;;;
2023/10/01 03:23:25;;;;;;;16.4;7.6;;;;;;;11.58;100;947.2623;;;;
2023/10/01 03:25:57;;;;;;;13.2;6.6;;;;;;;11.66;100;947.2195;;;;
2023/10/01 03:28:11;;;;;;;16.3;7.4;;;;;;;11.72;100;947.2405;;;;
2023/10/01 03:30:35;;;;;;;13.4;7.1;;;;;;;11.64;100;947.1928;;;;
2023/10/01 03:33:08;;;;;;;12.5;6.6;;;;;;;11.73;99.91797;947.1761;;;;
2023/10/01 03:35:30;;;;;;;15.7;6.8;;;;;;;11.78;99.32129;947.1802;;;;
2023/10/01 03:38:10;;;;;;;14.9;7.1;;;;;;;11.89;98.15527;947.1041;;;;
2023/10/01 03:40:22;;;;;;;13.4;6.4;;;;;;;11.85;98.38965;947.1248;;;;
2023/10/01 03:42:51;;;;;;;15.7;6.5;;;;;;;11.94;98.11035;947.1281;;;;
2023/10/01 03:45:51;;;;;;;16.2;7;;;;;;;11.96;97.93066;947.1347;;;;
2023/10/01 03:47:41;;;;;;;14.7;6.8;;;;;;;11.99;98.1084;947.0715;;;;
2023/10/01 03:50:09;;;;;;;18.5;7.6;;;;;;;12.03;98.1416;947.09;;;;
2023/10/01 03:52:39;;;;;;;15.7;7.3;;;;;;;12.01;98.05762;947.132;;;;
2023/10/01 03:55:15;;;;;;;14.4;7.2;;;;;;;11.96;97.48438;947.1331;;;;
2023/10/01 03:57:23;;;;;;;16.4;6.7;;;;;;;12.06;96.6123;947.1344;;;;
2023/10/01 03:59:53;;;;;;;16.1;7.3;;;;;;;12.02;96.50195;947.1546;;;;
2023/10/01 04:02:43;;;;;;;13.1;6.3;;;;;;;11.93;96.37793;947.0823;;;;
2023/10/01 04:05:04;;;;;;;14.9;6.8;;;;;;;11.74;97.13574;947.1731;;;;
2023/10/01 04:07:22;;;;;;;13.6;6.6;;;;;;;11.68;97.39844;947.1218;;;;
2023/10/01 04:09:46;;;;;;;14.4;6.7;;;;;;;11.57;98.12891;947.0427;;;;
2023/10/01 04:12:20;;;;;;;15.6;6.5;;;;;;;11.5;98.7998;947.0812;;;;
2023/10/01 04:14:39;;;;;;;14.5;7.2;;;;;;;11.36;99.70508;947.0724;;;;
2023/10/01 04:17:05;;;;;;;13.9;6.8;;;;;;;11.35;100;947.1184;;;;
2023/10/01 04:19:31;;;;;;;14.9;6.6;;;;;;;11.4;100;947.1005;;;;
2023/10/01 04:21:57;;;;;;;13.6;6.7;;;;;;;11.32;100;947.0779;;;;
2023/10/01 04:24:24;;;;;;;14.1;7.2;;;;;;;11.3;100;947.1477;;;;
2023/10/01 04:26:50;;;;;;;13.3;6.6;;;;;;;11.4;100;947.1317;;;;
2023/10/01 04:29:18;;;;;;;15.2;6.4;;;;;;;11.37;99.75293;947.1811;;;;
2023/10/01 04:32:00;;;;;;;15.3;6.9;;;;;;;11.24;100;947.1839;;;;
2023/10/01 04:34:10;;;;;;;12.6;7.1;;;;;;;11.19;100;947.2128;;;;
2023/10/01 04:36:35;;;;;;;16.1;7;;;;;;;11.28;100;947.274;;;;
2023/10/01 04:39:02;;;;;;;13.9;6.9;;;;;;;11.32;100;947.3203;;;;
2023/10/01 04:41:28;;;;;;;13.1;6.3;;;;;;;11.34;100;947.2914;;;;
2023/10/01 04:43:55;;;;;;;14.5;6.8;;;;;;;11.35;99.8623;947.3633;;;;
2023/10/01 04:46:20;;;;;;;14.8;6.4;;;;;;;11.37;99.66309;947.3829;;;;
2023/10/01 04:48:47;;;;;;;14.3;6.7;;;;;;;11.38;99.62891;947.3576;;;;
2023/10/01 04:51:12;;;;;;;12.4;5.8;;;;;;;11.5;99.25684;947.3588;;;;
2023/10/01 04:53:39;;;;;;;12.7;6.4;;;;;;;11.28;100;947.3644;;;;
2023/10/01 04:56:05;;;;;;;15.6;6.5;;;;;;;11.24;100;947.4056;;;;
2023/10/01 04:58:26;;;;;;;12.1;6.5;;;;;;;11.23;100;947.4118;;;;
2023/10/01 05:00:51;;;;;;;15.5;7.1;;;;;;;11.19;100;947.3875;;;;
2023/10/01 05:03:17;;;;;;;15.5;7.1;;;;;;;11.19;100;947.3765;;;;
2023/10/01 05:05:42;;;;;;;14.8;7.3;;;;;;;11.3;100;947.3694;;;;
2023/10/01 05:08:12;;;;;;;14.3;6.8;;;;;;;11.28;100;947.4017;;;;
2023/10/01 05:11:29;;;;;;;13.9;6.8;;;;;;;11.4;99.58887;947.3708;;;;
2023/10/01 05:13:51;;;;;;;14.9;6.8;;;;;;;11.41;99.53418;947.296;;;;
2023/10/01 05:16:13;;;;;;;15.6;7.2;;;;;;;11.45;99.67969;947.3044;;;;
2023/10/01 05:18:43;;;;;;;13;7.3;;;;;;;11.54;99.63184;947.3317;;;;
2023/10/01 05:21:12;;;;;;;13.8;6.8;;;;;;;11.64;99.07129;947.3283;;;;
2023/10/01 05:23:31;;;;;;;13.9;7;;;;;;;11.67;98.07129;947.2516;;;;
2023/10/01 05:25:56;;;;;;;13.4;6.6;;;;;;;11.69;97.6084;947.3566;;;;
2023/10/01 05:28:34;;;;;;;14.6;6.6;;;;;;;11.67;97.57715;947.4191;;;;
2023/10/01 05:30:56;;;;;;;13.3;6.4;;;;;;;11.52;98.99805;947.4182;;;;
2023/10/01 05:33:17;;;;;;;15.2;6.9;;;;;;;11.48;98.84082;947.4015;;;;
2023/10/01 05:35:44;;;;;;;14.4;7.1;;;;;;;11.52;99.26367;947.4661;;;;
2023/10/01 05:38:10;;;;;;;15.2;6.7;;;;;;;11.57;99.20508;947.4886;;;;
2023/10/01 05:40:31;;;;;;;12.1;6.3;;;;;;;11.6;98.47852;947.4692;;;;
2023/10/01 05:43:12;;;;;;;12.3;6.5;;;;;;;11.65;98.34277;947.5305;;;;
2023/10/01 05:45:36;;;;;;;12.3;6.8;;;;;;;11.53;99.61816;947.5078;;;;
2023/10/01 05:47:51;;;;;;;9.6;6;;;;;;;11.53;99.92676;947.5922;;;;
2023/10/01 05:50:12;;;;;;;14.6;6.8;;;;;;;11.49;100;947.5762;;;;
2023/10/01 05:52:40;;;;;;;14.8;6.4;;;;;;;11.61;99.30469;947.6166;;;;
2023/10/01 05:55:01;;;;;;;11.8;6;;;;;;;11.72;98.43848;947.6253;;;;
2023/10/01 05:57:28;;;;;;;14.3;6.6;;;;;;;11.83;97.47852;947.5984;;;;
2023/10/01 06:00:00;;;;;;;12.1;6.1;;;;;;;11.84;96.97461;947.6417;;;;
2023/10/01 06:02:41;;;;;;;12.6;5.9;;;;;;;11.88;96.77832;947.6266;;;;
2023/10/01 06:04:43;;;;;;;11.5;6.2;;;;;;;11.85;96.88672;947.6036;;;;
2023/10/01 06:07:11;;;;;;;11.9;6.2;;;;;;;11.8;97.41504;947.5417;;;;
2023/10/01 06:09:36;;;;;;;11.5;5.9;;;;;;;11.79;98.37109;947.6204;;;;
2023/10/01 06:12:04;;;;;;;13.4;6.1;;;;;;;12.04;97.42188;947.5995;;;;
2023/10/01 06:14:39;;;;;;;12;6.2;;;;;;;12.22;96.63574;947.4785;;;;
2023/10/01 06:17:00;;;;;;;11.3;5.7;;;;;;;12.45;96.01074;947.6035;;;;
2023/10/01 06:19:20;;;;;;;12.7;6.2;;;;;;;12.59;95.10254;947.5834;;;;
2023/10/01 06:21:50;;;;;;;12;5.8;;;;;;;12.6;95.10254;947.6195;;;;
2023/10/01 06:24:18;;;;;;;13.7;6.7;;;;;;;12.46;95.7627;947.5765;;;;
2023/10/01 06:26:45;;;;;;;12.6;6.3;;;;;;;12.37;96.85352;947.6145;;;;
2023/10/01 06:29:08;;;;;;;13.2;6.5;;;;;;;12.38;96.88965;947.598;;;;
2023/10/01 06:31:48;;;;;;;13.2;6.5;;;;;;;12.53;96.68262;947.6136;;;;
2023/10/01 06:34:03;;;;;;;12.4;6.4;;;;;;;12.52;97.07031;947.6358;;;;
2023/10/01 06:36:26;;;;;;;16.3;7.8;;;;;;;12.73;96.40527;947.6172;;;;
2023/10/01 06:38:55;;;;;;;15.5;7;;;;;;;12.82;95.36035;947.5606;;;;
2023/10/01 06:41:19;;;;;;;14.3;6.7;;;;;;;12.97;94.79492;947.6092;;;;
2023/10/01 06:43:54;;;;;;;13.9;6.9;;;;;;;13.21;93.75488;947.6054;;;;
2023/10/01 06:46:13;;;;;;;13.1;6.5;;;;;;;13.5;92.81836;947.502;;;;
2023/10/01 06:48:40;;;;;;;12.9;6.3;;;;;;;13.67;91.65918;947.5092;;;;
2023/10/01 06:51:05;;;;;;;15.1;7.8;;;;;;;13.88;90;947.3911;;;;
2023/10/01 06:53:45;;;;;;;14.2;7.6;;;;;;;13.96;89.20898;947.4504;;;;
2023/10/01 06:56:01;;;;;;;13.4;6.8;;;;;;;13.77;90.13867;947.4713;;;;
2023/10/01 06:58:27;;;;;;;13.8;6.9;;;;;;;14.05;89.92969;947.4244;;;;
2023/10/01 07:00:53;;;;;;;14;6.7;;;;;;;14.3;88.58887;947.4498;;;;
2023/10/01 07:03:21;;;;;;;14;6.6;;;;;;;14.42;87.8291;947.4152;;;;
2023/10/01 07:05:45;;;;;;;15.2;6.4;;;;;;;14.68;87.30566;947.3611;;;;
2023/10/01 07:08:09;;;;;;;13.9;6.7;;;;;;;14.75;86.99902;947.4059;;;;
2023/10/01 07:10:39;;;;;;;13.4;6;;;;;;;14.89;86.2168;947.3631;;;;
2023/10/01 07:13:08;;;;;;;13.6;6.2;;;;;;;14.9;86.29004;947.2982;;;;
2023/10/01 07:15:48;;;;;;;13.2;6.4;;;;;;;14.86;87.52637;947.338;;;;
2023/10/01 07:18:15;;;;;;;12.5;6.5;;;;;;;15.12;87.08203;947.3867;;;;
2023/10/01 07:20:33;;;;;;;12.8;6.5;;;;;;;15.5;84.97559;947.3702;;;;
2023/10/01 07:23:10;;;;;;;12.9;6.4;;;;;;;15.78;83.77051;947.3504;;;;
2023/10/01 07:25:53;;;;;;;13.5;6.4;;;;;;;15.81;82.48047;947.3859;;;;
2023/10/01 07:28:21;;;;;;;12.6;6.3;;;;;;;15.92;82.25879;947.4564;;;;
2023/10/01 07:30:56;;;;;;;13.6;6.5;;;;;;;16.17;82.13086;947.4309;;;;
2023/10/01 07:33:20;;;;;;;13.3;6.7;;;;;;;16.31;80.95508;947.4533;;;;
2023/10/01 07:35:44;;;;;;;14.5;7.3;;;;;;;16.36;82.12207;947.3883;;;;
2023/10/01 07:38:08;;;;;;;15.2;7.5;;;;;;;16.6;79.08789;947.3922;;;;
2023/10/01 07:40:50;;;;;;;15.8;7.3;;;;;;;16.86;78.99414;947.3722;;;;
2023/10/01 07:43:01;;;;;;;13.8;7;;;;;;;17.11;79.24805;947.3579;;;;
2023/10/01 07:45:24;;;;;;;14.5;6.9;;;;;;;17.19;76.64355;947.2797;;;;
2023/10/01 07:47:49;;;;;;;15.9;6.7;;;;;;;17.38;76.0498;947.2844;;;;
2023/10/01 07:50:17;;;;;;;17.8;7.8;;;;;;;17.63;75.71094;947.2715;;;;
2023/10/01 07:52:42;;;;;;;17.3;7.7;;;;;;;18.09;75.96387;947.2996;;;;
2023/10/01 07:55:29;;;;;;;16;7.6;;;;;;;18.34;72.74023;947.2839;;;;
2023/10/01 07:57:47;;;;;;;17.3;8.1;;;;;;;18.38;72.86426;947.2901;;;;
2023/10/01 08:00:25;;;;;;;15;7.1;;;;;;;18.65;72.9082;947.2876;;;;
2023/10/01 08:02:28;;;;;;;17;7.9;;;;;;;18.73;71.47852;947.2886;;;;
2023/10/01 08:05:08;;;;;;;16.9;7.5;;;;;;;18.57;72.31348;947.2722;;;;
2023/10/01 08:07:17;;;;;;;15.7;7.4;;;;;;;18.66;70.38574;947.3004;;;;
2023/10/01 08:09:46;;;;;;;16.1;7.2;;;;;;;18.89;71.13184;947.1747;;;;
2023/10/01 08:12:07;;;;;;;15.8;6.7;;;;;;;18.94;71.66406;947.2106;;;;
2023/10/01 08:14:35;;;;;;;15.1;7.5;;;;;;;19.25;71.55273;947.2399;;;;
2023/10/01 08:17:00;;;;;;;13.9;7;;;;;;;19.51;69.64746;947.2536;;;;
2023/10/01 08:19:44;;;;;;;16.4;8;;;;;;;19.4;70.42285;947.2723;;;;
2023/10/01 08:21:53;;;;;;;18.7;7.3;;;;;;;19.16;71.49023;947.2873;;;;
2023/10/01 08:24:20;;;;;;;17.9;7.9;;;;;;;19.28;69.88965;947.2808;;;;
2023/10/01 08:26:49;;;;;;;16.3;7.7;;;;;;;19.67;70.16309;947.3446;;;;
2023/10/01 08:29:14;;;;;;;14.3;6.8;;;;;;;19.99;66.85156;947.3558;;;;
2023/10/01 08:32:08;;;;;;;14.5;7.9;;;;;;;20.18;65.94824;947.3649;;;;
2023/10/01 08:34:22;;;;;;;17.2;8.1;;;;;;;20.04;65.71777;947.3489;;;;
2023/10/01 08:36:26;;;;;;;17.5;8.2;;;;;;;20.16;66.72754;947.336;;;;
2023/10/01 08:39:33;;;;;;;16.3;7.8;;;;;;;20.36;65.88086;947.3524;;;;
2023/10/01 08:41:32;;;;;;;19.4;8;;;;;;;20.42;64.34961;947.3933;;;;
2023/10/01 08:43:45;;;;;;;16.2;8;;;;;;;20.41;62.47754;947.3876;;;;
2023/10/01 08:46:11;;;;;;;15.4;7.6;;;;;;;20.21;65.39258;947.4528;;;;
2023/10/01 08:48:37;;;;;;;16.2;7.9;;;;;;;20.29;63.38379;947.3784;;;;
2023/10/01 08:51:08;;;;;;;18;8.6;;;;;;;20.32;63.36426;947.382;;;;
2023/10/01 08:53:27;;;;;;;17;7.9;;;;;;;20.14;65.34668;947.4302;;;;
2023/10/01 08:56:32;;;;;;;17.2;8.1;;;;;;;20.67;64.11719;947.4176;;;;
2023/10/01 08:58:27;;;;;;;16.4;7.6;;;;;;;20.96;62.3584;947.3752;;;;
2023/10/01 09:00:52;;;;;;;17.7;7.7;;;;;;;21.06;63.14258;947.2874;;;;
2023/10/01 09:03:12;;;;;;;20;8.4;;;;;;;20.81;60.66504;947.3078;;;;
2023/10/01 09:05:46;;;;;;;15.3;7.7;;;;;;;20.46;62.96484;947.2594;;;;
2023/10/01 09:08:26;;;;;;;16.2;7.9;;;;;;;20.65;63.45996;947.3183;;;;
2023/10/01 09:10:38;;;;;;;15;7.5;;;;;;;21.03;63.31445;947.2587;;;;
2023/10/01 09:12:56;;;;;;;16.7;7.8;;;;;;;21.24;60.98047;947.2727;;;;
2023/10/01 09:15:21;;;;;;;20;8.8;;;;;;;21.06;58.74707;947.2678;;;;
2023/10/01 09:17:56;;;;;;;15.6;7.8;;;;;;;21.08;61.73145;947.2611;;;;
2023/10/01 09:20:17;;;;;;;16.8;7.6;;;;;;;21.41;60.87695;947.2429;;;;
2023/10/01 09:22:42;;;;;;;17.7;7.8;;;;;;;21.7;62.24023;947.2106;;;;
2023/10/01 09:25:01;;;;;;;18.3;7.8;;;;;;;21.93;59.5293;947.1967;;;;
2023/10/01 09:27:30;;;;;;;16.6;8;;;;;;;21.95;58.58301;947.1273;;;;
2023/10/01 09:29:57;;;;;;;20.7;7.5;;;;;;;22.19;59.54004;947.1473;;;;
2023/10/01 09:32:19;;;;;;;17.1;8.2;;;;;;;21.97;55.41016;947.1537;;;;
2023/10/01 09:34:46;;;;;;;17.9;8.2;;;;;;;21.87;58.63086;947.0762;;;;
2023/10/01 09:37:09;;;;;;;16.7;8.1;;;;;;;22.02;56.3418;947.16;;;;
2023/10/01 09:39:32;;;;;;;18.3;8;;;;;;;22.27;58.83691;947.0322;;;;
2023/10/01 09:41:57;;;;;;;19;8;;;;;;;22.25;58.04883;947.0725;;;;
2023/10/01 09:44:22;;;;;;;17.7;8.5;;;;;;;21.83;57.47754;947.0917;;;;
2023/10/01 09:46:47;;;;;;;17.7;8.1;;;;;;;21.9;58.54004;947.0789;;;;
2023/10/01 09:49:21;;;;;;;17.9;8.3;;;;;;;21.92;58.86035;947.1198;;;;
2023/10/01 09:51:41;;;;;;;16.3;7.3;;;;;;;22.05;58.4668;947.1031;;;;
2023/10/01 09:54:02;;;;;;;18.5;7.7;;;;;;;21.49;60.7002;947.1372;;;;
2023/10/01 09:56:46;;;;;;;18.8;8.6;;;;;;;21.56;59.59668;947.1353;;;;
2023/10/01 09:58:58;;;;;;;17.1;8.1;;;;;;;21.73;58.31836;947.1161;;;;
2023/10/01 10:01:21;;;;;;;19;8.4;;;;;;;21.93;57.8418;947.1675;;;;
2023/10/01 10:03:54;;;;;;;18.2;8.6;;;;;;;22.2;57.47852;947.1309;;;;
2023/10/01 10:06:24;;;;;;;17.4;8;;;;;;;22.33;58.84375;947.1552;;;;
2023/10/01 10:08:39;;;;;;;16.9;8.2;;;;;;;22.47;57.86621;947.1417;;;;
2023/10/01 10:11:06;;;;;;;17.6;8.1;;;;;;;22.27;57.39453;947.1003;;;;
2023/10/01 10:13:33;;;;;;;16.6;8.3;;;;;;;22.16;59.25586;947.1429;;;;
2023/10/01 10:15:55;;;;;;;19.1;8.8;;;;;;;22.32;54.76074;947.1342;;;;
2023/10/01 10:18:23;;;;;;;16.7;8.9;;;;;;;22.4;55.16992;947.1074;;;;
2023/10/01 10:20:46;;;;;;;19.3;8.7;;;;;;;22.72;54.86914;947.1266;;;;
2023/10/01 10:23:13;;;;;;;19.3;9.1;;;;;;;22.36;57.65234;947.0545;;;;
2023/10/01 10:25:35;;;;;;;23.4;9.9;;;;;;;22.12;56.95215;947.0432;;;;
2023/10/01 10:28:06;;;;;;;16.1;7.8;;;;;;;22.19;55.98828;947.0028;;;;
2023/10/01 10:30:27;;;;;;;18.7;8.4;;;;;;;22.21;56.0498;946.9853;;;;
2023/10/01 10:32:53;;;;;;;17;8.1;;;;;;;22.91;56.16211;946.9911;;;;
2023/10/01 10:35:18;;;;;;;19.3;8.6;;;;;;;23.33;53.50977;947.0129;;;;
2023/10/01 10:37:47;;;;;;;19.4;8.8;;;;;;;23.97;51.55176;946.9891;;;;
2023/10/01 10:40:31;;;;;;;17.3;8.3;;;;;;;24.85;51.66406;946.9587;;;;
2023/10/01 10:42:40;;;;;;;17.2;8.3;;;;;;;25.06;48.21875;946.9436;;;;
2023/10/01 10:45:19;;;;;;;19.3;8.8;;;;;;;24.49;51.58691;946.9597;;;;
2023/10/01 10:47:30;;;;;;;16.3;7.7;;;;;;;24.23;51.87695;947.0245;;;;
2023/10/01 10:49:57;;;;;;;16;8.1;;;;;;;24;54.73242;947.0488;;;;
2023/10/01 10:52:30;;;;;;;17.5;7.7;;;;;;;23.65;53.80859;946.9905;;;;
2023/10/01 10:54:47;;;;;;;19.1;8.2;;;;;;;23.41;54.51953;947.0197;;;;
2023/10/01 10:57:13;;;;;;;15.3;7.4;;;;;;;23.11;53.83691;946.9059;;;;
2023/10/01 10:59:40;;;;;;;18.9;8.1;;;;;;;23.07;57.3916;946.8997;;;;
2023/10/01 11:02:05;;;;;;;19;8.7;;;;;;;23.15;56.88477;946.8075;;;;
2023/10/01 11:04:33;;;;;;;15.4;7.8;;;;;;;23.08;53.88086;946.8133;;;;
2023/10/01 11:07:01;;;;;;;16.2;7.9;;;;;;;23.11;56.96191;946.8231;;;;
2023/10/01 11:09:26;;;;;;;15.3;7.8;;;;;;;22.85;56.97559;946.8187;;;;
2023/10/01 11:11:46;;;;;;;15.6;7.8;;;;;;;22.63;58.9668;946.7989;;;;
2023/10/01 11:14:15;;;;;;;16.5;7.6;;;;;;;23.43;55.73242;946.7853;;;;
2023/10/01 11:16:37;;;;;;;16.9;8.1;;;;;;;23.5;57.7998;946.7103;;;;
2023/10/01 11:19:12;;;;;;;19.5;7.9;;;;;;;23.53;56.13379;946.7119;;;;
2023/10/01 11:21:31;;;;;;;17.4;8;;;;;;;23.55;57.06445;946.6567;;;;
2023/10/01 11:24:00;;;;;;;15.4;7.8;;;;;;;24.26;54.72949;946.65;;;;
2023/10/01 11:26:29;;;;;;;18.2;8.1;;;;;;;24.67;53.16504;946.5991;;;;
2023/10/01 11:28:57;;;;;;;17.5;8.1;;;;;;;24.05;54.95117;946.6024;;;;
2023/10/01 11:31:23;;;;;;;19.9;8.2;;;;;;;23.99;56.47363;946.6234;;;;
2023/10/01 11:33:48;;;;;;;17.7;7.8;;;;;;;23.86;58.06934;946.5963;;;;
2023/10/01 11:36:14;;;;;;;20.9;8.6;;;;;;;24.24;57.00098;946.5678;;;;
2023/10/01 11:38:42;;;;;;;16.4;7.6;;;;;;;24.34;54.18555;946.5438;;;;
2023/10/01 11:41:12;;;;;;;19.1;8;;;;;;;24.08;56.08496;946.4956;;;;
2023/10/01 11:43:34;;;;;;;17.2;8.2;;;;;;;24.31;56.04395;946.4957;;;;
2023/10/01 11:46:01;;;;;;;17.1;8;;;;;;;23.84;55.52441;946.5334;;;;
2023/10/01 11:48:23;;;;;;;15.5;7.8;;;;;;;23.8;56.94434;946.5325;;;;
2023/10/01 11:50:52;;;;;;;18;8.6;;;;;;;24.4;54.57031;946.5051;;;;
2023/10/01 11:53:16;;;;;;;16.8;8.4;;;;;;;24.61;54.44238;946.4754;;;;
2023/10/01 11:55:39;;;;;;;18.6;8.6;;;;;;;24.08;58.24121;946.4418;;;;
2023/10/01 11:58:04;;;;;;;18.2;8.8;;;;;;;23.48;58.47949;946.4311;;;;
2023/10/01 12:00:59;;;;;;;18.5;8.3;;;;;;;23.56;57.5498;946.4085;;;;
2023/10/01 12:02:58;;;;;;;18.6;8.6;;;;;;;23.32;58.36426;946.371;;;;
2023/10/01 12:05:22;;;;;;;21.3;8.3;;;;;;;23.23;60.2207;946.3489;;;;
2023/10/01 12:07:49;;;;;;;16.5;8;;;;;;;23.47;60.72363;946.2834;;;;
2023/10/01 12:10:31;;;;;;;16.5;8.2;;;;;;;23.57;59.03223;946.3133;;;;
2023/10/01 12:12:39;;;;;;;15.1;7.6;;;;;;;24.06;58.24902;946.2617;;;;
2023/10/01 12:17:34;;;;;;;17.6;8.2;;;;;;;24.35;56.57715;946.2106;;;;
2023/10/01 12:20:00;;;;;;;15.6;8.2;;;;;;;24.68;55.88867;946.2072;;;;
2023/10/01 12:22:27;;;;;;;19.3;8;;;;;;;24.64;58.21973;946.0992;;;;
2023/10/01 12:24:56;;;;;;;16.3;7.8;;;;;;;24.42;58.66113;946.1163;;;;
2023/10/01 12:27:37;;;;;;;18.3;8.7;;;;;;;24.65;58.85742;946.1305;;;;
2023/10/01 12:29:48;;;;;;;13.8;7.5;;;;;;;25;52.86133;946.0983;;;;
2023/10/01 12:32:06;;;;;;;18.1;7.7;;;;;;;24.85;54.16602;946.037;;;;
2023/10/01 12:34:31;;;;;;;17.2;8.1;;;;;;;25.34;52.61914;946.0259;;;;
2023/10/01 12:36:59;;;;;;;16.3;7.2;;;;;;;25.02;55.50781;945.9688;;;;
2023/10/01 12:39:27;;;;;;;17.2;8.5;;;;;;;24.56;56.29883;945.959;;;;
2023/10/01 12:42:04;;;;;;;17.9;7.6;;;;;;;24.39;58.28125;946.0154;;;;
2023/10/01 12:44:24;;;;;;;15.4;8.1;;;;;;;24.18;58.71387;945.9529;;;;
2023/10/01 12:46:51;;;;;;;16.7;7.7;;;;;;;24.55;57.1123;945.9306;;;;
2023/10/01 12:49:17;;;;;;;16.1;7.9;;;;;;;24.84;53.99902;945.8972;;;;
2023/10/01 12:51:38;;;;;;;17.8;7.9;;;;;;;25.15;55.22852;945.8563;;;;
2023/10/01 12:54:06;;;;;;;15;7.9;;;;;;;25.32;53.22949;945.8214;;;;
2023/10/01 12:56:44;;;;;;;15.4;7.7;;;;;;;25.43;54.76758;945.8714;;;;
2023/10/01 12:58:56;;;;;;;16.8;8;;;;;;;25.31;55.93359;945.7717;;;;
2023/10/01 13:01:31;;;;;;;19.8;8.5;;;;;;;24.92;58.63379;945.7551;;;;
2023/10/01 13:03:49;;;;;;;16.1;7.7;;;;;;;25.05;57.87207;945.7213;;;;
2023/10/01 13:06:12;;;;;;;17.8;7.6;;;;;;;25.14;56.99805;945.7335;;;;
2023/10/01 13:08:36;;;;;;;16.2;8.1;;;;;;;24.74;55.76855;945.7611;;;;
2023/10/01 13:11:02;;;;;;;15.4;7.8;;;;;;;24.7;58.81543;945.7282;;;;
2023/10/01 13:13:35;;;;;;;15.6;7.8;;;;;;;24.53;56.54297;945.7425;;;;
2023/10/01 13:15:56;;;;;;;16.8;7.6;;;;;;;24.44;59.80762;945.6722;;;;
2023/10/01 13:18:28;;;;;;;17.6;8;;;;;;;24.83;55.68262;945.6555;;;;
2023/10/01 13:20:58;;;;;;;17.5;8;;;;;;;25;55.5166;945.6273;;;;
2023/10/01 13:23:12;;;;;;;15;7.3;;;;;;;25.17;55.75;945.6714;;;;
2023/10/01 13:25:46;;;;;;;17;8.2;;;;;;;25.03;56.49902;945.6044;;;;
2023/10/01 13:28:06;;;;;;;15.2;7;;;;;;;24.69;57.40039;945.5834;;;;
2023/10/01 13:30:31;;;;;;;15.6;7.3;;;;;;;24.86;56.84375;945.5293;;;;
2023/10/01 13:33:14;;;;;;;15.8;7.4;;;;;;;25.02;54.90625;945.5801;;;;
2023/10/01 13:35:32;;;;;;;15.7;8;;;;;;;24.84;56.41602;945.5267;;;;
2023/10/01 13:37:48;;;;;;;18;8;;;;;;;24.93;56.58105;945.5301;;;;
2023/10/01 13:40:19;;;;;;;16.5;7.9;;;;;;;24.94;56.42969;945.5148;;;;
2023/10/01 14:09:46;;;;;;;14.2;7.1;;;;;;;25.65;54.37891;945.3067;;;;
2023/10/01 14:11:54;;;;;;;15.2;7.9;;;;;;;25.44;54.86133;945.2979;;;;
2023/10/01 14:14:16;;;;;;;17.3;7.4;;;;;;;25.43;55.45215;945.3395;;;;
2023/10/01 14:16:36;;;;;;;14.6;7;;;;;;;25.37;54.95996;945.2787;;;;
2023/10/01 14:19:13;;;;;;;18.1;7.8;;;;;;;25.28;55.76367;945.2675;;;;
2023/10/01 14:21:27;;;;;;;12.9;6.9;;;;;;;25.22;55.28516;945.2848;;;;
2023/10/01 14:23:57;;;;;;;13.7;7.1;;;;;;;25.19;56.60254;945.3096;;;;
2023/10/01 14:26:21;;;;;;;17.3;7.4;;;;;;;25.15;55.9248;945.2832;;;;
2023/10/01 14:28:46;;;;;;;14.3;7;;;;;;;25.1;55.80078;945.2794;;;;
2023/10/01 14:31:11;;;;;;;16.9;7.2;;;;;;;24.95;56.82031;945.2686;;;;
2023/10/01 14:33:39;;;;;;;14.2;7.1;;;;;;;25.07;56.00977;945.2762;;;;
2023/10/01 14:36:03;;;;;;;13.4;7.1;;;;;;;25.02;56.33301;945.2983;;;;
2023/10/01 14:38:36;;;;;;;15;7.7;;;;;;;25.12;56.41602;945.3187;;;;
2023/10/01 14:40:58;;;;;;;15.7;7.8;;;;;;;25.06;56.0791;945.337;;;;
2023/10/01 14:43:18;;;;;;;17.4;7.5;;;;;;;25.06;56.53906;945.2366;;;;